sensor_id;sensor_type;location;lat;lon;timestamp;temperature;humidity
31819;DHT22;18384;48.860;9.188;2022-07-18T00:00:09;20.60;64.90
31819;DHT22;18384;48.860;9.188;2022-07-18T00:02:35;20.60;65.30
31819;DHT22;18384;48.860;9.188;2022-07-18T00:05:01;20.50;64.90
31819;DHT22;18384;48.860;9.188;2022-07-18T00:07:28;20.50;64.70
31819;DHT22;18384;48.860;9.188;2022-07-18T00:09:54;20.50;65.60
31819;DHT22;18384;48.860;9.188;2022-07-18T00:12:20;20.50;65.60
31819;DHT22;18384;48.860;9.188;2022-07-18T00:14:46;20.40;66.10
31819;DHT22;18384;48.860;9.188;2022-07-18T00:17:12;20.40;65.90
31819;DHT22;18384;48.860;9.188;2022-07-18T00:19:38;20.40;65.10
31819;DHT22;18384;48.860;9.188;2022-07-18T00:22:05;20.40;65.80
31819;DHT22;18384;48.860;9.188;2022-07-18T00:24:31;20.40;65.90
31819;DHT22;18384;48.860;9.188;2022-07-18T00:26:58;20.30;66.10
31819;DHT22;18384;48.860;9.188;2022-07-18T00:29:25;20.30;66.20
31819;DHT22;18384;48.860;9.188;2022-07-18T00:31:52;20.30;66.10
31819;DHT22;18384;48.860;9.188;2022-07-18T00:34:18;20.30;67.00
31819;DHT22;18384;48.860;9.188;2022-07-18T00:36:44;20.30;67.20
31819;DHT22;18384;48.860;9.188;2022-07-18T00:39:10;20.20;65.20
31819;DHT22;18384;48.860;9.188;2022-07-18T00:41:36;20.20;65.70
31819;DHT22;18384;48.860;9.188;2022-07-18T00:44:02;20.20;65.80
31819;DHT22;18384;48.860;9.188;2022-07-18T00:46:29;20.10;67.10
31819;DHT22;18384;48.860;9.188;2022-07-18T00:48:55;20.10;66.80
31819;DHT22;18384;48.860;9.188;2022-07-18T00:51:21;20.10;66.90
31819;DHT22;18384;48.860;9.188;2022-07-18T00:53:48;20.00;66.70
31819;DHT22;18384;48.860;9.188;2022-07-18T00:56:17;20.00;67.00
31819;DHT22;18384;48.860;9.188;2022-07-18T00:58:45;20.00;67.30
31819;DHT22;18384;48.860;9.188;2022-07-18T01:01:11;20.00;67.60
31819;DHT22;18384;48.860;9.188;2022-07-18T01:03:56;20.00;68.70
31819;DHT22;18384;48.860;9.188;2022-07-18T01:06:22;19.90;67.60
31819;DHT22;18384;48.860;9.188;2022-07-18T01:08:48;19.90;67.00
31819;DHT22;18384;48.860;9.188;2022-07-18T01:11:15;19.90;67.80
31819;DHT22;18384;48.860;9.188;2022-07-18T01:13:42;19.90;67.70
31819;DHT22;18384;48.860;9.188;2022-07-18T01:16:08;19.90;67.60
31819;DHT22;18384;48.860;9.188;2022-07-18T01:18:34;19.80;67.40
31819;DHT22;18384;48.860;9.188;2022-07-18T01:21:00;19.80;67.60
31819;DHT22;18384;48.860;9.188;2022-07-18T01:23:27;19.80;67.20
31819;DHT22;18384;48.860;9.188;2022-07-18T01:25:53;19.70;65.50
31819;DHT22;18384;48.860;9.188;2022-07-18T01:28:19;19.70;66.20
31819;DHT22;18384;48.860;9.188;2022-07-18T01:30:45;19.70;66.30
31819;DHT22;18384;48.860;9.188;2022-07-18T01:33:11;19.70;64.50
31819;DHT22;18384;48.860;9.188;2022-07-18T01:35:37;19.70;65.00
31819;DHT22;18384;48.860;9.188;2022-07-18T01:38:03;19.60;66.70
31819;DHT22;18384;48.860;9.188;2022-07-18T01:40:30;19.60;67.00
31819;DHT22;18384;48.860;9.188;2022-07-18T01:42:57;19.60;67.40
31819;DHT22;18384;48.860;9.188;2022-07-18T01:45:23;19.60;65.90
31819;DHT22;18384;48.860;9.188;2022-07-18T01:47:49;19.60;67.40
31819;DHT22;18384;48.860;9.188;2022-07-18T01:50:15;19.50;66.80
31819;DHT22;18384;48.860;9.188;2022-07-18T01:52:41;19.50;67.40
31819;DHT22;18384;48.860;9.188;2022-07-18T01:55:09;19.50;68.00
31819;DHT22;18384;48.860;9.188;2022-07-18T01:57:36;19.50;67.70
31819;DHT22;18384;48.860;9.188;2022-07-18T02:00:04;19.50;67.70
31819;DHT22;18384;48.860;9.188;2022-07-18T02:02:31;19.40;68.10
31819;DHT22;18384;48.860;9.188;2022-07-18T02:04:57;19.40;68.30
31819;DHT22;18384;48.860;9.188;2022-07-18T02:07:47;19.40;67.20
31819;DHT22;18384;48.860;9.188;2022-07-18T02:10:19;19.40;67.80
31819;DHT22;18384;48.860;9.188;2022-07-18T02:12:46;19.30;68.10
31819;DHT22;18384;48.860;9.188;2022-07-18T02:15:14;19.30;68.70
31819;DHT22;18384;48.860;9.188;2022-07-18T02:17:42;19.30;68.50
31819;DHT22;18384;48.860;9.188;2022-07-18T02:20:11;19.30;68.50
31819;DHT22;18384;48.860;9.188;2022-07-18T02:22:39;19.20;68.60
31819;DHT22;18384;48.860;9.188;2022-07-18T02:25:06;19.20;69.10
31819;DHT22;18384;48.860;9.188;2022-07-18T02:27:33;19.20;68.80
31819;DHT22;18384;48.860;9.188;2022-07-18T02:29:59;19.20;69.50
31819;DHT22;18384;48.860;9.188;2022-07-18T02:32:25;19.20;70.00
31819;DHT22;18384;48.860;9.188;2022-07-18T02:34:51;19.20;70.00
31819;DHT22;18384;48.860;9.188;2022-07-18T02:37:17;19.10;70.20
31819;DHT22;18384;48.860;9.188;2022-07-18T02:39:43;19.10;69.60
31819;DHT22;18384;48.860;9.188;2022-07-18T02:42:10;19.10;69.80
31819;DHT22;18384;48.860;9.188;2022-07-18T02:44:36;19.00;69.60
31819;DHT22;18384;48.860;9.188;2022-07-18T02:47:03;19.00;70.00
31819;DHT22;18384;48.860;9.188;2022-07-18T02:49:29;19.00;70.30
31819;DHT22;18384;48.860;9.188;2022-07-18T02:52:00;19.00;70.10
31819;DHT22;18384;48.860;9.188;2022-07-18T02:54:30;19.00;69.90
31819;DHT22;18384;48.860;9.188;2022-07-18T02:56:57;19.00;69.50
31819;DHT22;18384;48.860;9.188;2022-07-18T02:59:24;18.90;69.90
31819;DHT22;18384;48.860;9.188;2022-07-18T03:01:52;18.90;69.90
31819;DHT22;18384;48.860;9.188;2022-07-18T03:04:20;18.90;69.90
31819;DHT22;18384;48.860;9.188;2022-07-18T03:06:47;18.90;69.40
31819;DHT22;18384;48.860;9.188;2022-07-18T03:09:14;19.00;69.40
31819;DHT22;18384;48.860;9.188;2022-07-18T03:11:41;18.80;69.50
31819;DHT22;18384;48.860;9.188;2022-07-18T03:14:07;18.80;69.90
31819;DHT22;18384;48.860;9.188;2022-07-18T03:16:34;18.80;70.10
31819;DHT22;18384;48.860;9.188;2022-07-18T03:19:00;18.80;69.70
31819;DHT22;18384;48.860;9.188;2022-07-18T03:21:26;18.80;68.80
31819;DHT22;18384;48.860;9.188;2022-07-18T03:23:52;18.70;69.00
31819;DHT22;18384;48.860;9.188;2022-07-18T03:26:18;18.70;69.40
31819;DHT22;18384;48.860;9.188;2022-07-18T03:28:44;18.60;69.40
31819;DHT22;18384;48.860;9.188;2022-07-18T03:31:10;18.60;69.10
31819;DHT22;18384;48.860;9.188;2022-07-18T03:33:38;18.60;69.70
31819;DHT22;18384;48.860;9.188;2022-07-18T03:36:04;18.90;69.60
31819;DHT22;18384;48.860;9.188;2022-07-18T03:38:31;18.50;70.30
31819;DHT22;18384;48.860;9.188;2022-07-18T03:40:57;18.50;70.30
31819;DHT22;18384;48.860;9.188;2022-07-18T03:43:23;18.50;70.10
31819;DHT22;18384;48.860;9.188;2022-07-18T03:45:49;18.50;69.50
31819;DHT22;18384;48.860;9.188;2022-07-18T03:48:15;18.50;69.60
31819;DHT22;18384;48.860;9.188;2022-07-18T03:50:41;18.40;68.90
31819;DHT22;18384;48.860;9.188;2022-07-18T03:53:08;18.50;69.00
31819;DHT22;18384;48.860;9.188;2022-07-18T03:55:34;18.50;68.50
31819;DHT22;18384;48.860;9.188;2022-07-18T03:58:00;18.50;70.00
31819;DHT22;18384;48.860;9.188;2022-07-18T04:00:26;18.50;70.00
31819;DHT22;18384;48.860;9.188;2022-07-18T04:02:52;18.50;69.40
31819;DHT22;18384;48.860;9.188;2022-07-18T04:05:18;18.50;70.30
31819;DHT22;18384;48.860;9.188;2022-07-18T04:07:45;18.50;70.20
31819;DHT22;18384;48.860;9.188;2022-07-18T04:10:11;18.50;71.40
31819;DHT22;18384;48.860;9.188;2022-07-18T04:13:11;18.50;70.60
31819;DHT22;18384;48.860;9.188;2022-07-18T04:15:38;18.60;71.30
31819;DHT22;18384;48.860;9.188;2022-07-18T04:18:06;18.60;71.30
31819;DHT22;18384;48.860;9.188;2022-07-18T04:20:34;18.60;71.90
31819;DHT22;18384;48.860;9.188;2022-07-18T04:23:03;18.60;71.60
31819;DHT22;18384;48.860;9.188;2022-07-18T04:25:37;18.60;71.40
31819;DHT22;18384;48.860;9.188;2022-07-18T04:28:05;18.60;71.60
31819;DHT22;18384;48.860;9.188;2022-07-18T04:30:33;18.70;72.20
31819;DHT22;18384;48.860;9.188;2022-07-18T04:33:02;18.70;72.30
31819;DHT22;18384;48.860;9.188;2022-07-18T04:35:29;18.70;72.20
31819;DHT22;18384;48.860;9.188;2022-07-18T04:37:56;18.80;72.30
31819;DHT22;18384;48.860;9.188;2022-07-18T04:40:22;18.80;71.90
31819;DHT22;18384;48.860;9.188;2022-07-18T04:42:51;18.90;72.20
31819;DHT22;18384;48.860;9.188;2022-07-18T04:45:17;19.00;71.50
31819;DHT22;18384;48.860;9.188;2022-07-18T04:47:52;19.10;71.40
31819;DHT22;18384;48.860;9.188;2022-07-18T04:50:19;19.20;71.70
31819;DHT22;18384;48.860;9.188;2022-07-18T04:52:46;19.40;70.60
31819;DHT22;18384;48.860;9.188;2022-07-18T04:55:14;19.60;70.50
31819;DHT22;18384;48.860;9.188;2022-07-18T04:57:40;19.70;70.20
31819;DHT22;18384;48.860;9.188;2022-07-18T05:00:13;19.80;69.40
31819;DHT22;18384;48.860;9.188;2022-07-18T05:02:42;19.90;70.00
31819;DHT22;18384;48.860;9.188;2022-07-18T05:05:11;19.90;69.60
31819;DHT22;18384;48.860;9.188;2022-07-18T05:07:39;19.90;70.00
31819;DHT22;18384;48.860;9.188;2022-07-18T05:10:07;19.90;69.60
31819;DHT22;18384;48.860;9.188;2022-07-18T05:12:39;19.80;71.20
31819;DHT22;18384;48.860;9.188;2022-07-18T05:15:09;19.90;70.40
31819;DHT22;18384;48.860;9.188;2022-07-18T05:17:37;19.90;70.20
31819;DHT22;18384;48.860;9.188;2022-07-18T05:20:05;19.90;69.60
31819;DHT22;18384;48.860;9.188;2022-07-18T05:22:34;19.90;70.90
31819;DHT22;18384;48.860;9.188;2022-07-18T05:25:02;19.90;70.20
31819;DHT22;18384;48.860;9.188;2022-07-18T05:27:29;20.00;70.50
31819;DHT22;18384;48.860;9.188;2022-07-18T05:29:55;20.00;70.70
31819;DHT22;18384;48.860;9.188;2022-07-18T05:32:21;20.10;70.40
31819;DHT22;18384;48.860;9.188;2022-07-18T05:34:47;20.20;70.20
31819;DHT22;18384;48.860;9.188;2022-07-18T05:37:13;20.20;70.90
31819;DHT22;18384;48.860;9.188;2022-07-18T05:39:40;20.30;70.30
31819;DHT22;18384;48.860;9.188;2022-07-18T05:42:06;20.40;69.70
31819;DHT22;18384;48.860;9.188;2022-07-18T05:44:32;20.50;69.20
31819;DHT22;18384;48.860;9.188;2022-07-18T05:46:59;20.70;69.10
31819;DHT22;18384;48.860;9.188;2022-07-18T05:49:25;20.70;68.00
31819;DHT22;18384;48.860;9.188;2022-07-18T05:51:51;20.80;68.10
31819;DHT22;18384;48.860;9.188;2022-07-18T05:54:17;21.10;68.10
31819;DHT22;18384;48.860;9.188;2022-07-18T05:56:50;21.10;68.00
31819;DHT22;18384;48.860;9.188;2022-07-18T05:59:18;21.10;68.00
31819;DHT22;18384;48.860;9.188;2022-07-18T06:01:45;21.20;68.20
31819;DHT22;18384;48.860;9.188;2022-07-18T06:04:11;21.20;65.90
31819;DHT22;18384;48.860;9.188;2022-07-18T06:06:37;21.40;67.20
31819;DHT22;18384;48.860;9.188;2022-07-18T06:09:04;21.50;67.40
31819;DHT22;18384;48.860;9.188;2022-07-18T06:11:31;21.50;67.20
31819;DHT22;18384;48.860;9.188;2022-07-18T06:13:57;21.60;66.70
31819;DHT22;18384;48.860;9.188;2022-07-18T06:16:23;21.60;65.90
31819;DHT22;18384;48.860;9.188;2022-07-18T06:18:49;21.50;65.70
31819;DHT22;18384;48.860;9.188;2022-07-18T06:21:15;21.50;66.10
31819;DHT22;18384;48.860;9.188;2022-07-18T06:23:41;21.60;66.80
31819;DHT22;18384;48.860;9.188;2022-07-18T06:26:08;21.60;66.70
31819;DHT22;18384;48.860;9.188;2022-07-18T06:28:34;21.70;65.80
31819;DHT22;18384;48.860;9.188;2022-07-18T06:31:01;21.80;65.80
31819;DHT22;18384;48.860;9.188;2022-07-18T06:33:27;21.90;66.30
31819;DHT22;18384;48.860;9.188;2022-07-18T06:35:53;22.00;65.90
31819;DHT22;18384;48.860;9.188;2022-07-18T06:38:19;22.10;64.40
31819;DHT22;18384;48.860;9.188;2022-07-18T06:40:45;22.20;64.00
31819;DHT22;18384;48.860;9.188;2022-07-18T06:43:11;22.30;64.20
31819;DHT22;18384;48.860;9.188;2022-07-18T06:45:39;22.40;63.00
31819;DHT22;18384;48.860;9.188;2022-07-18T06:48:05;22.40;62.60
31819;DHT22;18384;48.860;9.188;2022-07-18T06:50:31;22.50;62.70
31819;DHT22;18384;48.860;9.188;2022-07-18T06:52:57;22.60;62.40
31819;DHT22;18384;48.860;9.188;2022-07-18T06:55:23;22.70;63.40
31819;DHT22;18384;48.860;9.188;2022-07-18T06:57:50;22.70;62.20
31819;DHT22;18384;48.860;9.188;2022-07-18T07:00:16;22.70;61.90
31819;DHT22;18384;48.860;9.188;2022-07-18T07:02:44;22.80;62.50
31819;DHT22;18384;48.860;9.188;2022-07-18T07:05:13;22.90;63.20
31819;DHT22;18384;48.860;9.188;2022-07-18T07:07:41;22.90;62.60
31819;DHT22;18384;48.860;9.188;2022-07-18T07:10:08;23.00;62.10
31819;DHT22;18384;48.860;9.188;2022-07-18T07:12:37;23.00;62.90
31819;DHT22;18384;48.860;9.188;2022-07-18T07:15:05;23.00;62.10
31819;DHT22;18384;48.860;9.188;2022-07-18T07:17:32;23.00;61.90
31819;DHT22;18384;48.860;9.188;2022-07-18T07:19:58;23.10;61.70
31819;DHT22;18384;48.860;9.188;2022-07-18T07:22:24;23.20;61.70
31819;DHT22;18384;48.860;9.188;2022-07-18T07:24:50;23.20;61.30
31819;DHT22;18384;48.860;9.188;2022-07-18T07:27:16;23.30;60.70
31819;DHT22;18384;48.860;9.188;2022-07-18T07:29:42;23.30;60.90
31819;DHT22;18384;48.860;9.188;2022-07-18T07:32:09;23.30;61.20
31819;DHT22;18384;48.860;9.188;2022-07-18T07:34:35;23.50;60.90
31819;DHT22;18384;48.860;9.188;2022-07-18T07:37:01;23.50;60.60
31819;DHT22;18384;48.860;9.188;2022-07-18T07:39:27;23.50;59.70
31819;DHT22;18384;48.860;9.188;2022-07-18T07:41:53;23.60;60.00
31819;DHT22;18384;48.860;9.188;2022-07-18T07:44:19;23.70;59.30
31819;DHT22;18384;48.860;9.188;2022-07-18T07:46:45;23.80;59.80
31819;DHT22;18384;48.860;9.188;2022-07-18T07:49:11;23.90;59.30
31819;DHT22;18384;48.860;9.188;2022-07-18T07:51:38;23.90;59.00
31819;DHT22;18384;48.860;9.188;2022-07-18T07:54:04;24.00;57.20
31819;DHT22;18384;48.860;9.188;2022-07-18T07:56:31;24.00;56.30
31819;DHT22;18384;48.860;9.188;2022-07-18T07:58:57;24.00;57.40
31819;DHT22;18384;48.860;9.188;2022-07-18T08:01:23;24.00;57.90
31819;DHT22;18384;48.860;9.188;2022-07-18T08:03:49;24.10;57.50
31819;DHT22;18384;48.860;9.188;2022-07-18T08:06:16;24.10;54.90
31819;DHT22;18384;48.860;9.188;2022-07-18T08:08:41;24.20;56.90
31819;DHT22;18384;48.860;9.188;2022-07-18T08:11:08;24.30;55.80
31819;DHT22;18384;48.860;9.188;2022-07-18T08:13:34;24.30;54.30
31819;DHT22;18384;48.860;9.188;2022-07-18T08:16:00;24.50;54.60
31819;DHT22;18384;48.860;9.188;2022-07-18T08:18:26;24.50;54.60
31819;DHT22;18384;48.860;9.188;2022-07-18T08:20:52;24.60;52.90
31819;DHT22;18384;48.860;9.188;2022-07-18T08:23:18;24.80;51.70
31819;DHT22;18384;48.860;9.188;2022-07-18T08:25:44;24.80;52.20
31819;DHT22;18384;48.860;9.188;2022-07-18T08:28:11;24.80;52.40
31819;DHT22;18384;48.860;9.188;2022-07-18T08:30:38;24.90;51.30
31819;DHT22;18384;48.860;9.188;2022-07-18T08:33:05;24.90;50.50
31819;DHT22;18384;48.860;9.188;2022-07-18T08:35:33;25.00;51.70
31819;DHT22;18384;48.860;9.188;2022-07-18T08:38:00;25.20;51.40
31819;DHT22;18384;48.860;9.188;2022-07-18T08:40:27;25.20;52.90
31819;DHT22;18384;48.860;9.188;2022-07-18T08:42:56;25.30;53.80
31819;DHT22;18384;48.860;9.188;2022-07-18T08:45:24;25.40;53.70
31819;DHT22;18384;48.860;9.188;2022-07-18T08:47:51;25.50;54.50
31819;DHT22;18384;48.860;9.188;2022-07-18T08:50:18;25.50;53.30
31819;DHT22;18384;48.860;9.188;2022-07-18T08:52:44;25.60;52.00
31819;DHT22;18384;48.860;9.188;2022-07-18T08:55:11;25.50;52.40
31819;DHT22;18384;48.860;9.188;2022-07-18T08:57:37;25.60;52.20
31819;DHT22;18384;48.860;9.188;2022-07-18T09:00:04;25.70;51.70
31819;DHT22;18384;48.860;9.188;2022-07-18T09:02:31;25.70;51.50
31819;DHT22;18384;48.860;9.188;2022-07-18T09:04:58;25.70;51.80
31819;DHT22;18384;48.860;9.188;2022-07-18T09:07:32;25.70;51.90
31819;DHT22;18384;48.860;9.188;2022-07-18T09:10:04;25.80;51.70
31819;DHT22;18384;48.860;9.188;2022-07-18T09:12:32;25.80;50.00
31819;DHT22;18384;48.860;9.188;2022-07-18T09:15:07;25.90;49.40
31819;DHT22;18384;48.860;9.188;2022-07-18T09:17:36;26.00;50.00
31819;DHT22;18384;48.860;9.188;2022-07-18T09:20:08;26.10;49.90
31819;DHT22;18384;48.860;9.188;2022-07-18T09:22:44;26.20;50.10
31819;DHT22;18384;48.860;9.188;2022-07-18T09:25:20;26.30;48.50
31819;DHT22;18384;48.860;9.188;2022-07-18T09:27:52;26.40;49.00
31819;DHT22;18384;48.860;9.188;2022-07-18T09:30:33;26.40;49.70
31819;DHT22;18384;48.860;9.188;2022-07-18T09:33:08;26.40;49.60
31819;DHT22;18384;48.860;9.188;2022-07-18T09:35:45;26.50;51.30
31819;DHT22;18384;48.860;9.188;2022-07-18T09:38:15;26.60;50.30
31819;DHT22;18384;48.860;9.188;2022-07-18T09:40:51;26.70;49.90
31819;DHT22;18384;48.860;9.188;2022-07-18T09:43:19;26.80;48.30
31819;DHT22;18384;48.860;9.188;2022-07-18T09:45:49;26.90;48.60
31819;DHT22;18384;48.860;9.188;2022-07-18T09:48:21;26.90;47.90
31819;DHT22;18384;48.860;9.188;2022-07-18T09:50:55;26.90;45.90
31819;DHT22;18384;48.860;9.188;2022-07-18T09:53:31;26.90;46.10
31819;DHT22;18384;48.860;9.188;2022-07-18T09:56:04;26.90;45.90
31819;DHT22;18384;48.860;9.188;2022-07-18T09:58:49;27.00;49.00
31819;DHT22;18384;48.860;9.188;2022-07-18T10:01:17;27.10;48.20
31819;DHT22;18384;48.860;9.188;2022-07-18T10:03:44;27.10;47.70
31819;DHT22;18384;48.860;9.188;2022-07-18T10:06:10;27.30;48.40
31819;DHT22;18384;48.860;9.188;2022-07-18T10:08:37;27.40;47.50
31819;DHT22;18384;48.860;9.188;2022-07-18T10:11:05;27.40;46.70
31819;DHT22;18384;48.860;9.188;2022-07-18T10:13:33;27.40;47.10
31819;DHT22;18384;48.860;9.188;2022-07-18T10:16:01;27.40;46.10
31819;DHT22;18384;48.860;9.188;2022-07-18T10:18:29;27.40;46.00
31819;DHT22;18384;48.860;9.188;2022-07-18T10:21:05;27.50;46.70
31819;DHT22;18384;48.860;9.188;2022-07-18T10:23:42;27.40;46.10
31819;DHT22;18384;48.860;9.188;2022-07-18T10:26:24;27.50;46.50
31819;DHT22;18384;48.860;9.188;2022-07-18T10:29:25;27.50;45.30
31819;DHT22;18384;48.860;9.188;2022-07-18T10:32:02;27.60;44.50
31819;DHT22;18384;48.860;9.188;2022-07-18T10:34:35;27.70;44.80
31819;DHT22;18384;48.860;9.188;2022-07-18T10:37:11;27.70;44.60
31819;DHT22;18384;48.860;9.188;2022-07-18T10:39:39;27.80;44.60
31819;DHT22;18384;48.860;9.188;2022-07-18T10:42:15;27.70;44.90
31819;DHT22;18384;48.860;9.188;2022-07-18T10:44:44;27.80;45.80
31819;DHT22;18384;48.860;9.188;2022-07-18T10:47:12;27.90;44.10
31819;DHT22;18384;48.860;9.188;2022-07-18T10:51:29;27.90;46.80
31819;DHT22;18384;48.860;9.188;2022-07-18T10:54:06;27.90;44.20
31819;DHT22;18384;48.860;9.188;2022-07-18T10:57:15;27.90;44.10
31819;DHT22;18384;48.860;9.188;2022-07-18T10:59:59;28.00;45.90
31819;DHT22;18384;48.860;9.188;2022-07-18T11:02:32;28.00;46.60
31819;DHT22;18384;48.860;9.188;2022-07-18T11:05:00;28.20;45.80
31819;DHT22;18384;48.860;9.188;2022-07-18T11:07:27;28.20;44.30
31819;DHT22;18384;48.860;9.188;2022-07-18T11:09:53;28.20;44.70
31819;DHT22;18384;48.860;9.188;2022-07-18T11:12:31;28.10;43.00
31819;DHT22;18384;48.860;9.188;2022-07-18T11:15:04;28.10;43.50
31819;DHT22;18384;48.860;9.188;2022-07-18T11:19:31;28.10;44.30
31819;DHT22;18384;48.860;9.188;2022-07-18T11:21:58;28.20;43.60
31819;DHT22;18384;48.860;9.188;2022-07-18T11:24:24;28.20;43.40
31819;DHT22;18384;48.860;9.188;2022-07-18T11:26:51;28.20;44.80
31819;DHT22;18384;48.860;9.188;2022-07-18T11:29:19;28.30;43.80
31819;DHT22;18384;48.860;9.188;2022-07-18T11:31:57;28.30;44.30
31819;DHT22;18384;48.860;9.188;2022-07-18T11:34:25;28.30;44.40
31819;DHT22;18384;48.860;9.188;2022-07-18T11:36:52;28.30;43.80
31819;DHT22;18384;48.860;9.188;2022-07-18T11:39:36;28.30;43.20
31819;DHT22;18384;48.860;9.188;2022-07-18T11:42:02;28.30;42.50
31819;DHT22;18384;48.860;9.188;2022-07-18T11:44:30;28.20;42.30
31819;DHT22;18384;48.860;9.188;2022-07-18T11:47:04;28.30;44.00
31819;DHT22;18384;48.860;9.188;2022-07-18T11:49:35;28.30;42.90
31819;DHT22;18384;48.860;9.188;2022-07-18T11:52:02;28.30;43.50
31819;DHT22;18384;48.860;9.188;2022-07-18T11:54:29;28.30;42.40
31819;DHT22;18384;48.860;9.188;2022-07-18T11:56:56;28.40;43.40
31819;DHT22;18384;48.860;9.188;2022-07-18T11:59:22;28.60;43.20
31819;DHT22;18384;48.860;9.188;2022-07-18T12:01:59;28.50;42.70
31819;DHT22;18384;48.860;9.188;2022-07-18T12:04:27;28.60;42.20
31819;DHT22;18384;48.860;9.188;2022-07-18T12:07:16;28.70;43.20
31819;DHT22;18384;48.860;9.188;2022-07-18T12:09:49;28.70;41.50
31819;DHT22;18384;48.860;9.188;2022-07-18T12:12:18;28.70;42.00
31819;DHT22;18384;48.860;9.188;2022-07-18T12:14:59;28.70;42.00
31819;DHT22;18384;48.860;9.188;2022-07-18T12:17:28;28.80;43.00
31819;DHT22;18384;48.860;9.188;2022-07-18T12:20:15;28.80;42.60
31819;DHT22;18384;48.860;9.188;2022-07-18T12:23:05;28.80;42.40
31819;DHT22;18384;48.860;9.188;2022-07-18T12:25:55;28.70;42.00
31819;DHT22;18384;48.860;9.188;2022-07-18T12:28:25;28.70;42.20
31819;DHT22;18384;48.860;9.188;2022-07-18T12:30:51;28.70;41.80
31819;DHT22;18384;48.860;9.188;2022-07-18T12:33:17;28.70;41.80
31819;DHT22;18384;48.860;9.188;2022-07-18T12:35:44;28.70;43.20
31819;DHT22;18384;48.860;9.188;2022-07-18T12:38:13;28.70;40.40
31819;DHT22;18384;48.860;9.188;2022-07-18T12:41:41;28.70;40.50
31819;DHT22;18384;48.860;9.188;2022-07-18T12:44:07;28.80;42.30
31819;DHT22;18384;48.860;9.188;2022-07-18T12:46:38;28.90;41.20
31819;DHT22;18384;48.860;9.188;2022-07-18T12:49:04;28.90;42.70
31819;DHT22;18384;48.860;9.188;2022-07-18T12:51:31;29.10;42.00
31819;DHT22;18384;48.860;9.188;2022-07-18T12:53:57;29.20;42.90
31819;DHT22;18384;48.860;9.188;2022-07-18T12:56:23;29.30;42.70
31819;DHT22;18384;48.860;9.188;2022-07-18T12:58:50;29.30;43.00
31819;DHT22;18384;48.860;9.188;2022-07-18T13:01:16;29.30;42.80
31819;DHT22;18384;48.860;9.188;2022-07-18T13:03:42;29.30;42.30
31819;DHT22;18384;48.860;9.188;2022-07-18T13:06:08;29.30;41.60
31819;DHT22;18384;48.860;9.188;2022-07-18T13:08:34;29.30;42.30
31819;DHT22;18384;48.860;9.188;2022-07-18T13:11:00;29.40;43.00
31819;DHT22;18384;48.860;9.188;2022-07-18T13:13:26;29.30;41.20
31819;DHT22;18384;48.860;9.188;2022-07-18T13:15:52;29.40;41.60
31819;DHT22;18384;48.860;9.188;2022-07-18T13:18:19;29.40;41.90
31819;DHT22;18384;48.860;9.188;2022-07-18T13:20:45;29.40;42.60
31819;DHT22;18384;48.860;9.188;2022-07-18T13:23:11;29.50;42.30
31819;DHT22;18384;48.860;9.188;2022-07-18T13:25:39;29.50;41.80
31819;DHT22;18384;48.860;9.188;2022-07-18T13:28:05;29.50;40.80
31819;DHT22;18384;48.860;9.188;2022-07-18T13:30:32;29.50;41.00
31819;DHT22;18384;48.860;9.188;2022-07-18T13:32:58;29.50;41.30
31819;DHT22;18384;48.860;9.188;2022-07-18T13:35:24;29.50;41.20
31819;DHT22;18384;48.860;9.188;2022-07-18T13:37:50;29.50;42.30
31819;DHT22;18384;48.860;9.188;2022-07-18T13:40:16;29.60;43.50
31819;DHT22;18384;48.860;9.188;2022-07-18T13:42:44;29.70;42.80
31819;DHT22;18384;48.860;9.188;2022-07-18T13:45:10;29.80;43.40
31819;DHT22;18384;48.860;9.188;2022-07-18T13:47:38;29.90;42.70
31819;DHT22;18384;48.860;9.188;2022-07-18T13:50:07;30.00;42.20
31819;DHT22;18384;48.860;9.188;2022-07-18T13:52:34;29.90;41.20
31819;DHT22;18384;48.860;9.188;2022-07-18T13:55:00;29.90;42.00
31819;DHT22;18384;48.860;9.188;2022-07-18T13:57:26;29.90;42.90
31819;DHT22;18384;48.860;9.188;2022-07-18T13:59:52;30.00;41.70
31819;DHT22;18384;48.860;9.188;2022-07-18T14:02:19;30.00;42.50
31819;DHT22;18384;48.860;9.188;2022-07-18T14:04:45;30.00;42.40
31819;DHT22;18384;48.860;9.188;2022-07-18T14:07:11;29.90;43.40
31819;DHT22;18384;48.860;9.188;2022-07-18T14:09:43;30.10;43.30
31819;DHT22;18384;48.860;9.188;2022-07-18T14:12:10;30.20;42.40
31819;DHT22;18384;48.860;9.188;2022-07-18T14:14:36;30.20;42.80
31819;DHT22;18384;48.860;9.188;2022-07-18T14:17:03;30.10;41.70
31819;DHT22;18384;48.860;9.188;2022-07-18T14:19:29;30.20;42.80
31819;DHT22;18384;48.860;9.188;2022-07-18T14:21:55;30.20;42.40
31819;DHT22;18384;48.860;9.188;2022-07-18T14:24:21;30.20;42.10
31819;DHT22;18384;48.860;9.188;2022-07-18T14:26:47;30.30;41.40
31819;DHT22;18384;48.860;9.188;2022-07-18T14:29:14;30.20;41.30
31819;DHT22;18384;48.860;9.188;2022-07-18T14:31:40;30.20;41.80
31819;DHT22;18384;48.860;9.188;2022-07-18T14:34:06;30.10;41.00
31819;DHT22;18384;48.860;9.188;2022-07-18T14:36:32;30.20;41.90
31819;DHT22;18384;48.860;9.188;2022-07-18T14:38:58;30.10;41.10
31819;DHT22;18384;48.860;9.188;2022-07-18T14:41:24;30.10;41.30
31819;DHT22;18384;48.860;9.188;2022-07-18T14:43:50;30.10;41.80
31819;DHT22;18384;48.860;9.188;2022-07-18T14:46:16;30.10;41.00
31819;DHT22;18384;48.860;9.188;2022-07-18T14:48:43;30.10;40.50
31819;DHT22;18384;48.860;9.188;2022-07-18T14:51:09;30.10;40.20
31819;DHT22;18384;48.860;9.188;2022-07-18T14:53:35;30.00;40.00
31819;DHT22;18384;48.860;9.188;2022-07-18T14:56:01;30.10;40.70
31819;DHT22;18384;48.860;9.188;2022-07-18T14:58:27;30.10;40.90
31819;DHT22;18384;48.860;9.188;2022-07-18T15:00:53;30.10;41.10
31819;DHT22;18384;48.860;9.188;2022-07-18T15:03:19;30.00;40.40
31819;DHT22;18384;48.860;9.188;2022-07-18T15:05:46;30.00;40.20
31819;DHT22;18384;48.860;9.188;2022-07-18T15:08:12;30.10;40.80
31819;DHT22;18384;48.860;9.188;2022-07-18T15:10:38;30.10;41.10
31819;DHT22;18384;48.860;9.188;2022-07-18T15:13:04;30.10;41.10
31819;DHT22;18384;48.860;9.188;2022-07-18T15:15:32;30.20;41.60
31819;DHT22;18384;48.860;9.188;2022-07-18T15:17:58;30.20;40.70
31819;DHT22;18384;48.860;9.188;2022-07-18T15:20:24;30.20;39.80
31819;DHT22;18384;48.860;9.188;2022-07-18T15:22:51;30.10;40.00
31819;DHT22;18384;48.860;9.188;2022-07-18T15:25:17;30.20;40.00
31819;DHT22;18384;48.860;9.188;2022-07-18T15:27:43;30.20;39.80
31819;DHT22;18384;48.860;9.188;2022-07-18T15:30:10;30.20;39.10
31819;DHT22;18384;48.860;9.188;2022-07-18T15:32:36;30.20;40.20
31819;DHT22;18384;48.860;9.188;2022-07-18T15:35:02;30.30;39.90
31819;DHT22;18384;48.860;9.188;2022-07-18T15:37:28;30.30;40.20
31819;DHT22;18384;48.860;9.188;2022-07-18T15:39:55;30.30;40.70